Time;durP1;ratioP1;P1;durP2;ratioP2;P2;SDS_P1;SDS_P2;PMS_P1;PMS_P2;Temp;Humidity;BMP_temperature;BMP_pressure;BME280_temperature;BME280_humidity;BME280_pressure;Samples;Min_cycle;Max_cycle;Signal;HPM_P1;HPM_P2
2023/12/24 00:01:04;;;;;;;57.85;54.30;;;;;;;;;;5083957;28;20492;-78
2023/12/24 00:03:31;;;;;;;62.90;59.10;;;;;;;;;;5093514;28;20272;-80
2023/12/24 00:05:58;;;;;;;58.90;55.40;;;;;;;;;;5080361;28;20436;-80
2023/12/24 00:08:25;;;;;;;66.50;62.00;;;;;;;;;;5082921;28;20457;-79
2023/12/24 00:10:53;;;;;;;65.33;61.23;;;;;;;;;;5091065;28;20472;-79
2023/12/24 00:13:20;;;;;;;63.17;59.13;;;;;;;;;;5094369;28;20448;-80
2023/12/24 00:15:47;;;;;;;64.57;60.67;;;;;;;;;;5093980;28;20437;-79
2023/12/24 00:18:14;;;;;;;69.77;65.00;;;;;;;;;;5093380;28;20423;-80
2023/12/24 00:20:41;;;;;;;67.30;63.20;;;;;;;;;;5081192;28;20504;-80
2023/12/24 00:23:09;;;;;;;65.37;61.17;;;;;;;;;;5092410;28;20229;-79
2023/12/24 00:25:36;;;;;;;62.90;59.00;;;;;;;;;;5089527;28;20456;-80
2023/12/24 00:28:04;;;;;;;62.25;58.30;;;;;;;;;;5087920;28;20538;-79
2023/12/24 00:30:32;;;;;;;62.43;58.33;;;;;;;;;;5093106;28;20651;-80
2023/12/24 00:32:59;;;;;;;66.93;62.43;;;;;;;;;;5092505;28;21025;-79
2023/12/24 00:35:27;;;;;;;65.80;61.67;;;;;;;;;;5091297;28;20450;-78
2023/12/24 00:37:56;;;;;;;64.03;59.50;;;;;;;;;;5090040;28;20472;-79
2023/12/24 00:40:23;;;;;;;64.88;60.75;;;;;;;;;;5093652;28;20535;-80
2023/12/24 00:42:50;;;;;;;62.70;58.60;;;;;;;;;;5088752;28;20203;-80
2023/12/24 00:45:18;;;;;;;64.87;60.67;;;;;;;;;;5085467;28;20523;-80
2023/12/24 00:47:45;;;;;;;76.37;69.97;;;;;;;;;;5074204;28;20488;-81
2023/12/24 00:50:12;;;;;;;67.97;63.53;;;;;;;;;;5073678;28;20929;-78
2023/12/24 00:52:39;;;;;;;67.75;63.40;;;;;;;;;;5072883;28;20438;-78
2023/12/24 00:55:06;;;;;;;74.97;70.37;;;;;;;;;;5090117;28;20229;-81
2023/12/24 00:57:33;;;;;;;65.57;61.37;;;;;;;;;;5093388;28;20484;-79
2023/12/24 01:00:01;;;;;;;66.20;62.00;;;;;;;;;;5093131;28;20484;-79
2023/12/24 01:02:30;;;;;;;66.97;62.57;;;;;;;;;;5093944;28;20455;-81
2023/12/24 01:04:56;;;;;;;72.05;67.05;;;;;;;;;;5094047;28;20503;-80
2023/12/24 01:07:23;;;;;;;71.13;66.28;;;;;;;;;;5093572;28;20242;-81
2023/12/24 01:09:51;;;;;;;68.97;64.25;;;;;;;;;;5084513;28;20675;-79
2023/12/24 01:12:18;;;;;;;70.10;64.70;;;;;;;;;;5079582;28;20209;-81
2023/12/24 01:14:45;;;;;;;74.60;68.93;;;;;;;;;;5094017;28;20498;-80
2023/12/24 01:17:12;;;;;;;74.85;69.53;;;;;;;;;;5092544;28;20526;-80
2023/12/24 01:19:40;;;;;;;62.73;58.23;;;;;;;;;;5073227;28;20893;-79
2023/12/24 01:22:07;;;;;;;68.73;63.30;;;;;;;;;;5074694;28;20442;-80
2023/12/24 01:24:34;;;;;;;67.07;62.20;;;;;;;;;;5089169;28;20467;-81
2023/12/24 01:27:01;;;;;;;68.47;63.47;;;;;;;;;;5086473;28;20570;-81
2023/12/24 01:29:28;;;;;;;69.67;64.37;;;;;;;;;;5077286;28;20441;-81
2023/12/24 01:31:55;;;;;;;60.40;56.50;;;;;;;;;;5077114;28;20449;-79
2023/12/24 01:34:22;;;;;;;65.67;61.40;;;;;;;;;;5077344;28;20222;-81
2023/12/24 01:36:50;;;;;;;70.70;65.60;;;;;;;;;;5097829;28;20452;-81
2023/12/24 01:39:19;;;;;;;57.00;53.07;;;;;;;;;;5096834;28;20480;-79
2023/12/24 01:41:46;;;;;;;66.73;61.93;;;;;;;;;;5097037;28;20457;-80
2023/12/24 01:44:13;;;;;;;67.50;62.70;;;;;;;;;;5086405;28;20433;-81
2023/12/24 01:46:40;;;;;;;64.80;60.77;;;;;;;;;;5076810;28;20848;-82
2023/12/24 01:49:07;;;;;;;66.67;61.17;;;;;;;;;;5079688;28;20441;-80
2023/12/24 01:51:35;;;;;;;69.53;64.10;;;;;;;;;;5095957;28;20909;-81
2023/12/24 01:54:04;;;;;;;62.90;58.77;;;;;;;;;;5097868;28;20453;-80
2023/12/24 01:56:31;;;;;;;69.40;64.40;;;;;;;;;;5097429;28;20468;-84
2023/12/24 01:58:59;;;;;;;65.60;60.83;;;;;;;;;;5097607;28;20428;-80
2023/12/24 02:01:26;;;;;;;66.77;61.80;;;;;;;;;;5096672;28;20988;-79
2023/12/24 02:03:53;;;;;;;61.17;56.90;;;;;;;;;;5097041;28;20455;-79
2023/12/24 02:06:21;;;;;;;65.70;61.30;;;;;;;;;;5097323;28;20498;-80
2023/12/24 02:08:47;;;;;;;59.83;55.90;;;;;;;;;;5096278;28;20881;-78
2023/12/24 02:11:16;;;;;;;59.37;55.23;;;;;;;;;;5088881;28;20461;-81
2023/12/24 02:13:43;;;;;;;58.90;54.60;;;;;;;;;;5077462;28;20446;-80
2023/12/24 02:16:11;;;;;;;58.43;54.63;;;;;;;;;;5077360;28;20511;-81
2023/12/24 02:18:39;;;;;;;62.35;57.53;;;;;;;;;;5077399;28;20809;-81
2023/12/24 02:21:07;;;;;;;62.23;57.67;;;;;;;;;;5075915;28;20235;-80
2023/12/24 02:23:34;;;;;;;67.03;61.63;;;;;;;;;;5077152;28;20454;-80
2023/12/24 02:26:04;;;;;;;64.30;59.60;;;;;;;;;;5076565;28;20442;-79
2023/12/24 02:28:33;;;;;;;65.43;60.67;;;;;;;;;;5078329;28;20741;-81
2023/12/24 02:31:03;;;;;;;67.93;62.83;;;;;;;;;;5075968;28;20421;-79
2023/12/24 02:33:31;;;;;;;62.90;58.47;;;;;;;;;;5092849;28;20478;-78
2023/12/24 02:35:59;;;;;;;67.40;62.47;;;;;;;;;;5076598;28;20470;-80
2023/12/24 02:38:28;;;;;;;64.50;60.03;;;;;;;;;;5086119;28;20472;-81
2023/12/24 02:40:55;;;;;;;60.87;56.83;;;;;;;;;;5092725;28;20496;-80
2023/12/24 02:43:22;;;;;;;64.50;60.00;;;;;;;;;;5076501;28;20891;-80
2023/12/24 02:45:48;;;;;;;58.78;54.70;;;;;;;;;;5085230;28;20427;-81
2023/12/24 02:48:15;;;;;;;63.43;58.67;;;;;;;;;;5076049;28;20220;-80
2023/12/24 02:50:44;;;;;;;63.67;59.40;;;;;;;;;;5087691;28;20480;-82
2023/12/24 02:53:10;;;;;;;59.50;55.50;;;;;;;;;;5096126;28;20463;-79
2023/12/24 02:55:39;;;;;;;57.67;53.75;;;;;;;;;;5082367;28;20265;-79
2023/12/24 02:58:06;;;;;;;59.10;55.30;;;;;;;;;;5094433;28;20231;-79
2023/12/24 03:00:33;;;;;;;63.35;58.92;;;;;;;;;;5094204;28;20504;-79
2023/12/24 03:03:00;;;;;;;54.23;50.70;;;;;;;;;;5095842;28;20203;-80
2023/12/24 03:05:27;;;;;;;60.33;56.23;;;;;;;;;;5087466;28;20456;-81
2023/12/24 03:07:54;;;;;;;55.43;51.67;;;;;;;;;;5092290;28;20873;-79
2023/12/24 03:10:21;;;;;;;54.73;51.27;;;;;;;;;;5081488;28;20878;-81
2023/12/24 03:12:49;;;;;;;55.97;52.27;;;;;;;;;;5092609;28;20453;-80
2023/12/24 03:15:16;;;;;;;60.20;56.27;;;;;;;;;;5095883;28;20456;-80
2023/12/24 03:17:43;;;;;;;52.97;49.47;;;;;;;;;;5094983;28;20530;-79
2023/12/24 03:20:10;;;;;;;59.97;56.17;;;;;;;;;;5095130;28;20467;-78
2023/12/24 03:22:37;;;;;;;60.30;55.63;;;;;;;;;;5095275;28;20500;-80
2023/12/24 03:25:05;;;;;;;57.77;53.93;;;;;;;;;;5095489;28;20506;-81
2023/12/24 03:27:32;;;;;;;62.60;58.47;;;;;;;;;;5094847;28;20461;-80
2023/12/24 03:30:00;;;;;;;62.43;58.23;;;;;;;;;;5094708;28;20445;-79
2023/12/24 03:32:27;;;;;;;57.77;54.17;;;;;;;;;;5094362;28;20835;-79
2023/12/24 03:34:58;;;;;;;60.80;56.60;;;;;;;;;;5094961;28;20941;-79
2023/12/24 03:37:24;;;;;;;63.63;59.63;;;;;;;;;;5079944;28;20473;-78
2023/12/24 03:39:51;;;;;;;66.50;62.30;;;;;;;;;;5074780;28;20449;-80
2023/12/24 03:42:18;;;;;;;62.40;58.60;;;;;;;;;;5074307;28;20466;-79
2023/12/24 03:44:45;;;;;;;58.63;54.67;;;;;;;;;;5074220;28;20446;-79
2023/12/24 03:47:14;;;;;;;60.07;56.43;;;;;;;;;;5074592;28;20462;-80
2023/12/24 03:49:41;;;;;;;63.20;58.80;;;;;;;;;;5074949;28;20441;-78
2023/12/24 03:52:08;;;;;;;65.93;61.43;;;;;;;;;;5074236;28;20446;-79
2023/12/24 03:54:35;;;;;;;59.90;56.33;;;;;;;;;;5075494;28;20481;-79
2023/12/24 03:57:02;;;;;;;67.57;63.67;;;;;;;;;;5075211;28;20503;-79
2023/12/24 03:59:30;;;;;;;65.17;60.77;;;;;;;;;;5074911;28;20261;-79
2023/12/24 04:01:57;;;;;;;64.63;60.00;;;;;;;;;;5073139;28;20489;-78
2023/12/24 04:04:25;;;;;;;69.57;64.57;;;;;;;;;;5073180;28;20454;-78
2023/12/24 04:06:52;;;;;;;62.27;58.10;;;;;;;;;;5072917;28;20469;-79
2023/12/24 04:09:19;;;;;;;67.13;62.80;;;;;;;;;;5073274;28;20436;-78
2023/12/24 04:11:49;;;;;;;63.00;59.10;;;;;;;;;;5072491;28;20450;-79
2023/12/24 04:14:16;;;;;;;69.30;64.57;;;;;;;;;;5088464;28;20512;-78
2023/12/24 04:16:43;;;;;;;69.10;64.90;;;;;;;;;;5093147;28;20465;-79
2023/12/24 04:19:10;;;;;;;68.90;64.30;;;;;;;;;;5093442;28;20444;-78
2023/12/24 04:21:38;;;;;;;74.57;69.43;;;;;;;;;;5092845;28;20520;-79
2023/12/24 04:24:05;;;;;;;78.57;73.60;;;;;;;;;;5093410;28;20567;-79
2023/12/24 04:26:32;;;;;;;72.17;67.70;;;;;;;;;;5093250;28;20824;-78
2023/12/24 04:28:59;;;;;;;70.37;65.93;;;;;;;;;;5093375;28;20456;-78
2023/12/24 04:31:26;;;;;;;67.77;63.77;;;;;;;;;;5094435;28;20461;-79
2023/12/24 04:33:53;;;;;;;67.80;63.72;;;;;;;;;;5094051;28;20449;-78
2023/12/24 04:36:20;;;;;;;76.63;72.00;;;;;;;;;;5093845;28;20235;-78
2023/12/24 04:38:49;;;;;;;71.10;66.60;;;;;;;;;;5094268;28;20501;-79
2023/12/24 04:41:16;;;;;;;69.50;65.13;;;;;;;;;;5093916;28;21369;-79
2023/12/24 04:43:43;;;;;;;70.03;65.67;;;;;;;;;;5094658;28;20494;-80
2023/12/24 04:46:10;;;;;;;68.90;64.87;;;;;;;;;;5094324;28;20510;-80
2023/12/24 04:48:38;;;;;;;66.60;62.47;;;;;;;;;;5093950;28;20937;-80
2023/12/24 04:51:05;;;;;;;69.10;65.13;;;;;;;;;;5093443;28;20452;-79
2023/12/24 04:53:32;;;;;;;63.73;59.93;;;;;;;;;;5093533;28;20455;-78
2023/12/24 04:56:01;;;;;;;66.73;63.00;;;;;;;;;;5093800;28;20445;-79
2023/12/24 04:58:28;;;;;;;67.27;63.03;;;;;;;;;;5097748;28;20456;-80
2023/12/24 05:00:55;;;;;;;62.53;59.03;;;;;;;;;;5098024;28;20484;-78
2023/12/24 05:03:22;;;;;;;60.97;57.37;;;;;;;;;;5097811;28;20503;-81
2023/12/24 05:05:49;;;;;;;63.13;59.50;;;;;;;;;;5097751;28;20510;-79
2023/12/24 05:08:16;;;;;;;61.08;57.35;;;;;;;;;;5097794;28;20486;-80
2023/12/24 05:10:44;;;;;;;62.70;58.97;;;;;;;;;;5098039;28;20206;-78
2023/12/24 05:13:13;;;;;;;61.90;58.07;;;;;;;;;;5098588;28;20518;-81
2023/12/24 05:15:40;;;;;;;63.13;59.53;;;;;;;;;;5097921;28;20518;-82
2023/12/24 05:18:07;;;;;;;62.53;58.93;;;;;;;;;;5097892;28;20449;-81
2023/12/24 05:20:34;;;;;;;59.27;55.77;;;;;;;;;;5097044;28;20541;-80
2023/12/24 05:23:01;;;;;;;59.00;55.60;;;;;;;;;;5098191;28;20502;-78
2023/12/24 05:25:28;;;;;;;59.87;56.07;;;;;;;;;;5098313;28;20513;-79
2023/12/24 05:27:55;;;;;;;58.90;55.50;;;;;;;;;;5080442;28;20519;-79
2023/12/24 05:30:23;;;;;;;61.40;58.00;;;;;;;;;;5077054;28;20480;-78
2023/12/24 05:32:50;;;;;;;59.93;56.53;;;;;;;;;;5076655;28;20469;-79
2023/12/24 05:35:17;;;;;;;60.73;57.40;;;;;;;;;;5078045;28;20549;-80
2023/12/24 05:37:46;;;;;;;57.67;54.37;;;;;;;;;;5076370;28;20568;-78
2023/12/24 05:40:13;;;;;;;61.20;57.60;;;;;;;;;;5076506;28;20453;-80
2023/12/24 05:42:40;;;;;;;63.73;60.13;;;;;;;;;;5076998;28;20491;-80
2023/12/24 05:45:10;;;;;;;63.73;60.20;;;;;;;;;;5076960;28;20446;-78
2023/12/24 05:47:39;;;;;;;63.57;59.97;;;;;;;;;;5077334;28;20560;-78
2023/12/24 05:50:06;;;;;;;62.93;59.27;;;;;;;;;;5077287;28;20438;-79
2023/12/24 05:52:33;;;;;;;58.33;54.93;;;;;;;;;;5076830;28;20494;-79
2023/12/24 05:55:01;;;;;;;58.93;55.37;;;;;;;;;;5077048;28;20813;-78
2023/12/24 05:57:28;;;;;;;58.00;54.60;;;;;;;;;;5076811;28;20900;-80
2023/12/24 05:59:55;;;;;;;57.10;53.70;;;;;;;;;;5076788;28;20461;-81
2023/12/24 06:02:22;;;;;;;64.07;60.47;;;;;;;;;;5076420;28;20981;-81
2023/12/24 06:04:50;;;;;;;58.30;54.90;;;;;;;;;;5077717;28;20446;-79
2023/12/24 06:07:17;;;;;;;60.00;56.50;;;;;;;;;;5077739;28;20564;-80
2023/12/24 06:09:44;;;;;;;57.30;53.93;;;;;;;;;;5077412;28;20539;-79
2023/12/24 06:12:11;;;;;;;57.13;53.77;;;;;;;;;;5076075;28;20420;-80
2023/12/24 06:14:38;;;;;;;54.40;51.20;;;;;;;;;;5077272;28;20840;-79
2023/12/24 06:17:05;;;;;;;57.70;54.40;;;;;;;;;;5076306;28;20481;-79
2023/12/24 06:19:32;;;;;;;53.63;50.53;;;;;;;;;;5096216;28;20456;-78
2023/12/24 06:22:01;;;;;;;56.47;53.27;;;;;;;;;;5095704;28;20473;-80
2023/12/24 06:24:28;;;;;;;52.47;49.37;;;;;;;;;;5096886;28;20448;-80
2023/12/24 06:26:55;;;;;;;59.47;56.07;;;;;;;;;;5096399;28;20488;-81
2023/12/24 06:29:22;;;;;;;55.77;52.57;;;;;;;;;;5097367;28;20851;-79
2023/12/24 06:31:49;;;;;;;54.30;51.20;;;;;;;;;;5094152;28;20787;-80
2023/12/24 06:34:16;;;;;;;56.57;53.37;;;;;;;;;;5083200;28;20998;-79
2023/12/24 06:36:43;;;;;;;61.43;57.77;;;;;;;;;;5095996;28;20518;-79
2023/12/24 06:39:11;;;;;;;59.73;56.43;;;;;;;;;;5096450;28;20458;-80
2023/12/24 06:41:38;;;;;;;58.13;54.93;;;;;;;;;;5095113;28;20477;-81
2023/12/24 06:44:05;;;;;;;62.30;58.90;;;;;;;;;;5095960;28;20441;-78
2023/12/24 06:46:32;;;;;;;59.90;56.53;;;;;;;;;;5096184;28;20593;-80
2023/12/24 06:48:59;;;;;;;56.00;52.73;;;;;;;;;;5095728;28;20498;-79
2023/12/24 06:51:26;;;;;;;58.10;54.80;;;;;;;;;;5095971;28;20495;-79
2023/12/24 06:53:53;;;;;;;58.23;55.00;;;;;;;;;;5095253;28;20469;-80
2023/12/24 06:56:21;;;;;;;58.60;55.10;;;;;;;;;;5090431;28;20477;-78
2023/12/24 06:58:48;;;;;;;66.60;61.50;;;;;;;;;;5075437;28;20852;-79
2023/12/24 07:01:15;;;;;;;62.50;58.13;;;;;;;;;;5078398;28;20899;-78
2023/12/24 07:03:42;;;;;;;64.17;59.60;;;;;;;;;;5085179;28;20457;-78
2023/12/24 07:06:09;;;;;;;65.10;60.83;;;;;;;;;;5074942;28;20527;-78
2023/12/24 07:08:38;;;;;;;59.27;55.80;;;;;;;;;;5093837;28;20484;-80
2023/12/24 07:11:05;;;;;;;60.50;57.00;;;;;;;;;;5095058;28;20495;-80
2023/12/24 07:13:33;;;;;;;60.83;57.17;;;;;;;;;;5095857;28;20942;-81
2023/12/24 07:16:00;;;;;;;59.63;56.13;;;;;;;;;;5095941;28;20444;-80
2023/12/24 07:18:27;;;;;;;56.63;53.23;;;;;;;;;;5084636;28;20883;-78
2023/12/24 07:20:54;;;;;;;53.67;50.47;;;;;;;;;;5091971;28;20459;-80
2023/12/24 07:23:21;;;;;;;67.33;62.70;;;;;;;;;;5076087;28;20454;-80
2023/12/24 07:25:48;;;;;;;61.97;58.47;;;;;;;;;;5095303;28;20502;-80
2023/12/24 07:28:15;;;;;;;61.80;58.30;;;;;;;;;;5095611;28;20471;-79
2023/12/24 07:30:43;;;;;;;63.60;59.80;;;;;;;;;;5095362;28;20453;-80
2023/12/24 07:33:10;;;;;;;60.57;57.03;;;;;;;;;;5094902;28;20449;-78
2023/12/24 07:35:39;;;;;;;59.70;56.30;;;;;;;;;;5095040;28;20441;-79
2023/12/24 07:38:06;;;;;;;54.60;51.40;;;;;;;;;;5095570;28;20529;-79
2023/12/24 07:40:33;;;;;;;56.03;52.60;;;;;;;;;;5094896;28;20510;-81
2023/12/24 07:43:01;;;;;;;60.77;57.37;;;;;;;;;;5094633;28;20488;-80
2023/12/24 07:45:28;;;;;;;56.40;53.03;;;;;;;;;;5095018;28;20810;-79
2023/12/24 07:47:56;;;;;;;54.63;51.43;;;;;;;;;;5092193;28;20529;-81
2023/12/24 07:50:23;;;;;;;57.43;53.93;;;;;;;;;;5090074;28;20442;-80
2023/12/24 07:52:50;;;;;;;56.93;53.33;;;;;;;;;;5095087;28;20944;-82
2023/12/24 07:55:18;;;;;;;57.53;53.90;;;;;;;;;;5093873;28;20468;-78
2023/12/24 07:57:45;;;;;;;55.53;52.20;;;;;;;;;;5094492;28;20859;-78
2023/12/24 08:00:12;;;;;;;57.33;53.80;;;;;;;;;;5087845;28;20790;-79
2023/12/24 08:02:39;;;;;;;59.90;56.37;;;;;;;;;;5093414;28;20492;-79
2023/12/24 08:05:09;;;;;;;60.83;57.13;;;;;;;;;;5093824;28;20476;-79
2023/12/24 08:07:36;;;;;;;62.13;58.60;;;;;;;;;;5073900;28;20482;-79
2023/12/24 08:10:04;;;;;;;56.20;52.90;;;;;;;;;;5074052;28;20446;-78
2023/12/24 08:12:31;;;;;;;59.50;56.07;;;;;;;;;;5073590;28;20450;-85
2023/12/24 08:14:58;;;;;;;65.13;61.13;;;;;;;;;;5073582;28;20481;-79
2023/12/24 08:17:25;;;;;;;59.17;55.77;;;;;;;;;;5072703;28;20466;-79
2023/12/24 08:19:54;;;;;;;56.27;52.70;;;;;;;;;;5087106;28;20449;-80
2023/12/24 08:22:23;;;;;;;55.07;51.53;;;;;;;;;;5091638;28;20593;-80
2023/12/24 08:24:50;;;;;;;55.17;51.87;;;;;;;;;;5092480;28;20440;-79
2023/12/24 08:27:17;;;;;;;53.40;50.10;;;;;;;;;;5092676;28;21337;-78
2023/12/24 08:29:44;;;;;;;56.20;52.90;;;;;;;;;;5086723;28;21342;-79
2023/12/24 08:32:11;;;;;;;56.37;52.67;;;;;;;;;;5092008;28;20447;-79
2023/12/24 08:34:38;;;;;;;56.27;52.80;;;;;;;;;;5093208;28;20832;-79
2023/12/24 08:37:05;;;;;;;57.87;54.03;;;;;;;;;;5092932;28;20464;-80
2023/12/24 08:39:33;;;;;;;57.23;53.53;;;;;;;;;;5089120;28;20510;-79
2023/12/24 08:42:00;;;;;;;57.73;54.20;;;;;;;;;;5072163;28;20488;-78
2023/12/24 08:44:27;;;;;;;53.70;50.30;;;;;;;;;;5072843;28;20446;-80
2023/12/24 08:46:54;;;;;;;57.90;54.40;;;;;;;;;;5080679;28;20892;-84
2023/12/24 08:49:21;;;;;;;57.23;53.63;;;;;;;;;;5091759;28;20445;-86
2023/12/24 08:51:48;;;;;;;56.20;52.70;;;;;;;;;;5094570;28;20510;-86
2023/12/24 08:54:15;;;;;;;55.93;52.33;;;;;;;;;;5092041;28;20452;-76
2023/12/24 08:56:44;;;;;;;56.80;53.10;;;;;;;;;;5087303;28;20485;-75
2023/12/24 08:59:10;;;;;;;59.00;55.50;;;;;;;;;;5090160;28;20494;-75
2023/12/24 09:01:41;;;;;;;61.30;57.50;;;;;;;;;;5089503;28;20561;-75
2023/12/24 09:04:08;;;;;;;60.83;57.17;;;;;;;;;;5090439;28;20443;-77
2023/12/24 09:06:35;;;;;;;58.77;55.23;;;;;;;;;;5089676;28;20475;-76
2023/12/24 09:09:02;;;;;;;66.03;62.17;;;;;;;;;;5077398;28;20506;-76
2023/12/24 09:11:29;;;;;;;58.10;54.40;;;;;;;;;;5089300;28;20456;-77
2023/12/24 09:13:57;;;;;;;60.73;56.87;;;;;;;;;;5088722;28;20457;-77
2023/12/24 09:16:24;;;;;;;61.80;57.90;;;;;;;;;;5089774;28;20522;-77
2023/12/24 09:18:51;;;;;;;64.03;59.73;;;;;;;;;;5090027;28;20441;-75
2023/12/24 09:21:18;;;;;;;57.73;54.23;;;;;;;;;;5089168;28;20498;-75
2023/12/24 09:23:45;;;;;;;58.80;55.10;;;;;;;;;;5081254;28;20557;-81
2023/12/24 09:26:12;;;;;;;59.87;56.07;;;;;;;;;;5086941;28;20477;-79
2023/12/24 09:28:39;;;;;;;55.73;52.33;;;;;;;;;;5073356;28;20769;-79
2023/12/24 09:31:07;;;;;;;53.00;49.70;;;;;;;;;;5078845;28;20423;-79
2023/12/24 09:33:34;;;;;;;56.30;52.70;;;;;;;;;;5092370;28;20833;-79
2023/12/24 09:36:07;;;;;;;57.30;53.70;;;;;;;;;;5092539;28;20445;-79
2023/12/24 09:38:33;;;;;;;58.80;55.30;;;;;;;;;;5074985;28;20442;-80
2023/12/24 09:41:01;;;;;;;57.43;53.70;;;;;;;;;;5079883;28;20509;-79
2023/12/24 09:43:30;;;;;;;52.90;49.60;;;;;;;;;;5095276;28;21230;-79
2023/12/24 09:45:57;;;;;;;58.80;55.13;;;;;;;;;;5096179;28;20455;-79
2023/12/24 09:48:26;;;;;;;60.70;56.70;;;;;;;;;;5096787;28;20429;-79
2023/12/24 09:50:53;;;;;;;57.30;53.90;;;;;;;;;;5096237;28;20453;-79
2023/12/24 09:53:20;;;;;;;60.23;56.50;;;;;;;;;;5095701;28;20449;-78
2023/12/24 09:55:48;;;;;;;59.10;55.43;;;;;;;;;;5095899;28;20453;-80
2023/12/24 09:58:15;;;;;;;57.07;53.33;;;;;;;;;;5096367;28;20451;-80
2023/12/24 10:00:42;;;;;;;55.37;51.97;;;;;;;;;;5096784;28;20470;-79
2023/12/24 10:03:09;;;;;;;57.43;53.80;;;;;;;;;;5097378;28;20481;-81
2023/12/24 10:05:56;;;;;;;56.67;52.93;;;;;;;;;;5096437;28;20444;-80
2023/12/24 10:08:22;;;;;;;57.20;53.80;;;;;;;;;;5076593;28;20507;-80
2023/12/24 10:10:49;;;;;;;60.50;56.90;;;;;;;;;;5086224;28;20453;-80
2023/12/24 10:13:20;;;;;;;61.37;57.37;;;;;;;;;;5096502;28;20445;-80
2023/12/24 10:15:48;;;;;;;59.70;56.00;;;;;;;;;;5096494;28;20440;-85
2023/12/24 10:18:19;;;;;;;61.63;57.70;;;;;;;;;;5092324;28;20916;-76
2023/12/24 10:20:48;;;;;;;58.27;54.77;;;;;;;;;;5092374;28;20456;-75
2023/12/24 10:23:15;;;;;;;57.87;54.07;;;;;;;;;;5092879;28;20524;-77
2023/12/24 10:25:42;;;;;;;59.20;55.63;;;;;;;;;;5094261;28;20475;-79
2023/12/24 10:28:09;;;;;;;64.67;60.37;;;;;;;;;;5091223;28;20491;-77
2023/12/24 10:30:36;;;;;;;56.93;53.33;;;;;;;;;;5079821;28;21266;-77
2023/12/24 10:33:11;;;;;;;63.93;59.60;;;;;;;;;;5095169;28;20936;-78
2023/12/24 10:35:38;;;;;;;61.97;58.27;;;;;;;;;;5095979;28;20455;-77
2023/12/24 10:38:13;;;;;;;63.60;59.80;;;;;;;;;;5092498;28;20473;-76
2023/12/24 10:40:40;;;;;;;61.67;57.87;;;;;;;;;;5090772;28;20484;-78
2023/12/24 10:43:07;;;;;;;61.90;58.17;;;;;;;;;;5094390;28;20558;-76
2023/12/24 10:45:34;;;;;;;57.00;53.33;;;;;;;;;;5092814;28;20479;-76
2023/12/24 10:48:01;;;;;;;57.50;54.00;;;;;;;;;;5092594;28;20826;-76
2023/12/24 10:50:28;;;;;;;55.03;51.60;;;;;;;;;;5091556;28;20445;-77
2023/12/24 10:52:55;;;;;;;57.60;54.00;;;;;;;;;;5077374;28;20518;-77
2023/12/24 10:55:24;;;;;;;60.77;56.87;;;;;;;;;;5090684;28;20554;-76
2023/12/24 10:57:54;;;;;;;59.67;56.07;;;;;;;;;;5076059;28;20465;-76
2023/12/24 11:00:22;;;;;;;55.47;52.07;;;;;;;;;;5072239;28;20520;-77
2023/12/24 11:02:49;;;;;;;63.50;59.50;;;;;;;;;;5071455;28;20505;-77
2023/12/24 11:05:31;;;;;;;61.03;57.23;;;;;;;;;;5073068;28;20523;-76
2023/12/24 11:07:58;;;;;;;63.10;59.20;;;;;;;;;;5071328;28;20474;-78
2023/12/24 11:10:39;;;;;;;58.90;55.40;;;;;;;;;;5070794;28;20452;-77
2023/12/24 11:13:21;;;;;;;58.33;54.53;;;;;;;;;;5071743;28;20442;-76
2023/12/24 11:15:48;;;;;;;65.17;61.30;;;;;;;;;;5071016;28;20442;-77
2023/12/24 11:18:35;;;;;;;57.47;53.87;;;;;;;;;;5083710;28;20433;-78
2023/12/24 11:21:04;;;;;;;60.43;56.53;;;;;;;;;;5095252;28;20464;-80
2023/12/24 11:23:31;;;;;;;61.13;57.53;;;;;;;;;;5090579;28;20538;-82
2023/12/24 11:25:58;;;;;;;63.73;60.00;;;;;;;;;;5075283;28;20449;-76
2023/12/24 11:28:37;;;;;;;65.97;62.00;;;;;;;;;;5071037;28;20500;-76
2023/12/24 11:31:05;;;;;;;67.40;63.40;;;;;;;;;;5069402;28;20437;-75
2023/12/24 11:33:50;;;;;;;57.80;54.43;;;;;;;;;;5069899;28;20446;-75
2023/12/24 11:36:22;;;;;;;59.60;56.03;;;;;;;;;;5069868;28;20470;-75
2023/12/24 11:38:49;;;;;;;59.70;56.00;;;;;;;;;;5070155;28;21273;-74
2023/12/24 11:41:17;;;;;;;62.03;58.37;;;;;;;;;;5070662;28;20446;-75
2023/12/24 11:43:52;;;;;;;58.00;54.40;;;;;;;;;;5070691;28;21066;-75
2023/12/24 11:46:19;;;;;;;55.43;51.80;;;;;;;;;;5070687;28;20505;-75
2023/12/24 11:48:46;;;;;;;56.37;52.80;;;;;;;;;;5070550;28;21019;-75
2023/12/24 11:51:13;;;;;;;55.70;52.20;;;;;;;;;;5070032;28;21247;-75
2023/12/24 11:53:42;;;;;;;56.93;53.47;;;;;;;;;;5070648;28;20428;-75
2023/12/24 11:56:10;;;;;;;51.30;48.07;;;;;;;;;;5084300;28;20557;-77
2023/12/24 11:58:37;;;;;;;57.30;53.53;;;;;;;;;;5090996;28;20452;-77
2023/12/24 12:01:05;;;;;;;56.07;52.57;;;;;;;;;;5090428;28;20445;-77
2023/12/24 12:03:32;;;;;;;55.77;52.27;;;;;;;;;;5091053;28;20484;-77
2023/12/24 12:05:59;;;;;;;60.40;56.60;;;;;;;;;;5090974;28;20447;-76
2023/12/24 12:08:26;;;;;;;57.73;54.13;;;;;;;;;;5090693;28;20457;-76
2023/12/24 12:10:55;;;;;;;61.90;58.10;;;;;;;;;;5090336;28;20528;-77
2023/12/24 12:13:22;;;;;;;59.13;55.20;;;;;;;;;;5091162;28;20440;-77
2023/12/24 12:15:49;;;;;;;59.77;56.07;;;;;;;;;;5090605;28;20440;-77
2023/12/24 12:18:17;;;;;;;56.80;53.30;;;;;;;;;;5090739;28;20484;-76
2023/12/24 12:20:44;;;;;;;60.27;56.27;;;;;;;;;;5090373;28;20448;-76
2023/12/24 12:23:11;;;;;;;63.30;59.10;;;;;;;;;;5090874;28;20484;-76
2023/12/24 12:25:38;;;;;;;55.57;51.97;;;;;;;;;;5090429;28;20913;-77
2023/12/24 12:28:06;;;;;;;63.40;59.70;;;;;;;;;;5090415;28;21267;-76
2023/12/24 12:30:33;;;;;;;59.67;55.60;;;;;;;;;;5089443;28;20460;-77
2023/12/24 12:33:01;;;;;;;60.67;57.17;;;;;;;;;;5076586;28;20454;-77
2023/12/24 12:35:27;;;;;;;54.40;51.10;;;;;;;;;;5070568;28;21269;-77
2023/12/24 12:37:54;;;;;;;57.33;53.83;;;;;;;;;;5070145;28;21292;-77
2023/12/24 12:40:21;;;;;;;63.10;59.30;;;;;;;;;;5081885;28;20972;-78
2023/12/24 12:42:48;;;;;;;61.10;57.37;;;;;;;;;;5089921;28;20959;-77
2023/12/24 12:45:17;;;;;;;56.93;53.30;;;;;;;;;;5090396;28;20808;-78
2023/12/24 12:47:44;;;;;;;57.20;53.60;;;;;;;;;;5089777;28;20481;-77
2023/12/24 12:50:11;;;;;;;57.60;53.70;;;;;;;;;;5090357;28;20421;-78
2023/12/24 12:52:38;;;;;;;56.20;52.80;;;;;;;;;;5089644;28;20451;-77
2023/12/24 12:55:06;;;;;;;58.97;55.10;;;;;;;;;;5073221;28;20445;-76
2023/12/24 12:57:34;;;;;;;59.90;56.13;;;;;;;;;;5069872;28;20480;-76
2023/12/24 13:00:03;;;;;;;61.20;57.50;;;;;;;;;;5070198;28;20570;-77
2023/12/24 13:02:32;;;;;;;57.40;53.80;;;;;;;;;;5069349;28;20511;-77
2023/12/24 13:04:58;;;;;;;56.40;53.10;;;;;;;;;;5069388;28;20477;-81
2023/12/24 13:07:30;;;;;;;58.10;54.50;;;;;;;;;;5070043;28;20448;-78
2023/12/24 13:09:57;;;;;;;59.90;55.83;;;;;;;;;;5070682;28;20479;-78
2023/12/24 13:12:24;;;;;;;66.40;62.20;;;;;;;;;;5069046;28;20933;-78
2023/12/24 13:14:52;;;;;;;64.60;60.63;;;;;;;;;;5066923;28;20845;-79
2023/12/24 13:17:23;;;;;;;60.77;56.93;;;;;;;;;;5069019;28;20523;-77
2023/12/24 13:19:53;;;;;;;67.10;62.67;;;;;;;;;;5074283;28;20426;-77
2023/12/24 13:22:20;;;;;;;65.40;61.10;;;;;;;;;;5073796;28;20524;-78
2023/12/24 13:24:48;;;;;;;62.80;58.60;;;;;;;;;;5073891;28;20578;-78
2023/12/24 13:27:17;;;;;;;65.90;61.77;;;;;;;;;;5073951;28;20551;-77
2023/12/24 13:29:44;;;;;;;66.07;61.67;;;;;;;;;;5073906;28;20450;-78
2023/12/24 13:32:11;;;;;;;62.47;58.33;;;;;;;;;;5073516;28;20446;-77
2023/12/24 13:34:38;;;;;;;66.90;62.50;;;;;;;;;;5074246;28;20425;-78
2023/12/24 13:37:08;;;;;;;67.07;62.57;;;;;;;;;;5074288;28;20518;-77
2023/12/24 13:39:35;;;;;;;59.67;56.00;;;;;;;;;;5073891;28;20452;-78
2023/12/24 13:42:03;;;;;;;64.03;60.10;;;;;;;;;;5073702;28;20453;-78
2023/12/24 13:44:30;;;;;;;56.47;53.07;;;;;;;;;;5073635;28;20997;-78
2023/12/24 13:46:57;;;;;;;55.97;52.47;;;;;;;;;;5075384;28;20470;-79
2023/12/24 13:49:27;;;;;;;63.20;59.50;;;;;;;;;;5074507;28;20453;-78
2023/12/24 13:51:55;;;;;;;45.00;41.60;;;;;;;;;;5072813;28;20985;-78
2023/12/24 13:54:23;;;;;;;55.10;51.60;;;;;;;;;;5073535;28;20438;-78
2023/12/24 13:56:51;;;;;;;58.20;54.30;;;;;;;;;;5073453;28;20493;-78
2023/12/24 13:59:18;;;;;;;62.67;59.07;;;;;;;;;;5073254;28;20957;-78
2023/12/24 14:01:45;;;;;;;58.37;55.00;;;;;;;;;;5072681;28;20478;-77
2023/12/24 14:04:12;;;;;;;62.43;58.83;;;;;;;;;;5073651;28;20527;-78
2023/12/24 14:06:39;;;;;;;62.73;59.17;;;;;;;;;;5073698;28;20518;-78
2023/12/24 14:09:08;;;;;;;59.30;56.00;;;;;;;;;;5072616;28;20451;-77
2023/12/24 14:11:37;;;;;;;56.10;52.80;;;;;;;;;;5072816;28;20466;-77
2023/12/24 14:14:04;;;;;;;61.23;57.53;;;;;;;;;;5073379;28;20495;-78
2023/12/24 14:16:32;;;;;;;58.10;54.70;;;;;;;;;;5073386;28;20469;-78
2023/12/24 14:18:59;;;;;;;59.20;55.70;;;;;;;;;;5072613;28;20457;-78